Portada
METAR-TAF:

METAR-TAF

Aeropuertos :

Qaisumah, Arabia Saudita

latitud: 28-19N, longitud: 046-07E, altitud: 358 m

Observación

El informe se hizo hace 1 hora y 20 minutos, a las 11:00 UTC
Viento 4 kt del norte
Temperatura 10°C
Humedad 29%
Presión 1023 hPa
Visibilidad 10 km o más
sin nubes por debajo de 1500 m y sin presencia de cumulonimbus.

METAR: OEPA 221100Z 36004KT CAVOK 10/M07 Q1023 NOSIG

Hora: 15:20 (12:20 UTC)

Pronóstico

El informe se hizo hace 2 horas y 35 minutos, a las 09:45 UTC
Pronóstico válido del 22 a las 12 UTC al 23 a las 18 UTC
Viento 4 kt con dirección variable
Visibilidad 10 km o más
sin nubes por debajo de 1500 m y sin presencia de cumulonimbus.
Evolucionando progresivamente
del 22 a las 18 UTC al 22 a las 20 UTC
Viento 12 kt del sureste
Visibilidad: 7000 m
Escasas nubes a una altura de 4000 ft

TAF: OEPA 220945Z 2212/2318 VRB04KT CAVOK BECMG 2218/2220 13012KT 7000 FEW040

Observaciones y pronósticos meteorológicos de más de 4000 aeropuertos (mensajes METAR y TAF).

Los puntos amarillos y rojos representan las estaciones disponibles.

Ponga el ratón en el punto deseado para ver el nombre de la estación.

Haga clic para ver las observaciones y los pronósticos meteorológicos.

Para cambiar el mapa : haga clic en los botones verdes con una cruz de color negro para hacer un zoom, en el botón verde con un guión para alejar o en las flechas verdes para mapas adyacentes.


METAR-TAF: